sensor_id;sensor_type;location;lat;lon;timestamp;P1;durP1;ratioP1;P2;durP2;ratioP2
21107;SDS011;10712;52.944;9.098;2022-08-19T00:01:43;5.45;;;4.85;;
21107;SDS011;10712;52.944;9.098;2022-08-19T00:04:13;6.97;;;4.88;;
21107;SDS011;10712;52.944;9.098;2022-08-19T00:06:41;5.05;;;4.45;;
21107;SDS011;10712;52.944;9.098;2022-08-19T00:09:10;4.85;;;4.35;;
21107;SDS011;10712;52.944;9.098;2022-08-19T00:11:40;5.82;;;4.40;;
21107;SDS011;10712;52.944;9.098;2022-08-19T00:14:07;7.30;;;4.97;;
21107;SDS011;10712;52.944;9.098;2022-08-19T00:16:36;5.95;;;4.07;;
21107;SDS011;10712;52.944;9.098;2022-08-19T00:19:03;8.35;;;5.47;;
21107;SDS011;10712;52.944;9.098;2022-08-19T00:21:29;4.35;;;3.55;;
21107;SDS011;10712;52.944;9.098;2022-08-19T00:23:56;4.03;;;3.70;;
21107;SDS011;10712;52.944;9.098;2022-08-19T00:26:23;5.63;;;4.13;;
21107;SDS011;10712;52.944;9.098;2022-08-19T00:28:51;5.07;;;4.65;;
21107;SDS011;10712;52.944;9.098;2022-08-19T00:31:17;9.30;;;5.30;;
21107;SDS011;10712;52.944;9.098;2022-08-19T00:33:43;5.45;;;4.47;;
21107;SDS011;10712;52.944;9.098;2022-08-19T00:36:09;5.57;;;4.18;;
21107;SDS011;10712;52.944;9.098;2022-08-19T00:38:36;6.95;;;5.10;;
21107;SDS011;10712;52.944;9.098;2022-08-19T00:41:08;5.38;;;4.88;;
21107;SDS011;10712;52.944;9.098;2022-08-19T00:43:38;6.63;;;5.80;;
21107;SDS011;10712;52.944;9.098;2022-08-19T00:46:04;5.78;;;4.88;;
21107;SDS011;10712;52.944;9.098;2022-08-19T00:48:31;8.43;;;6.28;;
21107;SDS011;10712;52.944;9.098;2022-08-19T00:50:59;5.97;;;5.38;;
21107;SDS011;10712;52.944;9.098;2022-08-19T00:53:27;6.28;;;5.68;;
21107;SDS011;10712;52.944;9.098;2022-08-19T00:55:58;6.55;;;4.85;;
21107;SDS011;10712;52.944;9.098;2022-08-19T00:58:28;7.07;;;6.35;;
21107;SDS011;10712;52.944;9.098;2022-08-19T01:00:59;5.77;;;5.13;;
21107;SDS011;10712;52.944;9.098;2022-08-19T01:03:26;7.80;;;5.72;;
21107;SDS011;10712;52.944;9.098;2022-08-19T01:05:52;6.63;;;5.88;;
21107;SDS011;10712;52.944;9.098;2022-08-19T01:08:20;7.47;;;5.40;;
21107;SDS011;10712;52.944;9.098;2022-08-19T01:10:47;8.68;;;5.78;;
21107;SDS011;10712;52.944;9.098;2022-08-19T01:13:21;7.65;;;5.80;;
21107;SDS011;10712;52.944;9.098;2022-08-19T01:15:57;8.35;;;6.32;;
21107;SDS011;10712;52.944;9.098;2022-08-19T01:18:32;7.20;;;5.57;;
21107;SDS011;10712;52.944;9.098;2022-08-19T01:21:08;7.40;;;6.28;;
21107;SDS011;10712;52.944;9.098;2022-08-19T01:23:55;5.60;;;5.03;;
21107;SDS011;10712;52.944;9.098;2022-08-19T01:26:22;8.18;;;6.90;;
21107;SDS011;10712;52.944;9.098;2022-08-19T01:28:52;9.45;;;7.20;;
21107;SDS011;10712;52.944;9.098;2022-08-19T01:31:25;7.47;;;6.75;;
21107;SDS011;10712;52.944;9.098;2022-08-19T01:33:56;8.68;;;6.43;;
21107;SDS011;10712;52.944;9.098;2022-08-19T01:36:26;6.45;;;5.85;;
21107;SDS011;10712;52.944;9.098;2022-08-19T01:39:05;9.27;;;7.53;;
21107;SDS011;10712;52.944;9.098;2022-08-19T01:41:35;7.95;;;7.20;;
21107;SDS011;10712;52.944;9.098;2022-08-19T01:44:02;7.88;;;6.32;;
21107;SDS011;10712;52.944;9.098;2022-08-19T01:46:29;9.23;;;6.40;;
21107;SDS011;10712;52.944;9.098;2022-08-19T01:48:56;10.00;;;8.38;;
21107;SDS011;10712;52.944;9.098;2022-08-19T01:51:23;10.70;;;8.85;;
21107;SDS011;10712;52.944;9.098;2022-08-19T01:53:49;9.52;;;7.63;;
21107;SDS011;10712;52.944;9.098;2022-08-19T01:56:16;10.02;;;7.63;;
21107;SDS011;10712;52.944;9.098;2022-08-19T01:58:45;10.70;;;8.43;;
21107;SDS011;10712;52.944;9.098;2022-08-19T02:01:18;9.73;;;7.00;;
21107;SDS011;10712;52.944;9.098;2022-08-19T02:03:44;9.90;;;7.38;;
21107;SDS011;10712;52.944;9.098;2022-08-19T02:06:11;10.35;;;8.27;;
21107;SDS011;10712;52.944;9.098;2022-08-19T02:08:37;8.25;;;6.63;;
21107;SDS011;10712;52.944;9.098;2022-08-19T02:11:05;9.45;;;8.48;;
21107;SDS011;10712;52.944;9.098;2022-08-19T02:13:32;11.57;;;7.80;;
21107;SDS011;10712;52.944;9.098;2022-08-19T02:15:59;11.13;;;8.48;;
21107;SDS011;10712;52.944;9.098;2022-08-19T02:18:25;13.75;;;8.95;;
21107;SDS011;10712;52.944;9.098;2022-08-19T02:20:51;10.65;;;8.43;;
21107;SDS011;10712;52.944;9.098;2022-08-19T02:23:17;10.25;;;8.77;;
21107;SDS011;10712;52.944;9.098;2022-08-19T02:25:44;10.40;;;9.35;;
21107;SDS011;10712;52.944;9.098;2022-08-19T02:28:13;9.50;;;7.45;;
21107;SDS011;10712;52.944;9.098;2022-08-19T02:30:40;7.67;;;6.87;;
21107;SDS011;10712;52.944;9.098;2022-08-19T02:33:07;14.15;;;8.63;;
21107;SDS011;10712;52.944;9.098;2022-08-19T02:35:33;9.15;;;7.40;;
21107;SDS011;10712;52.944;9.098;2022-08-19T02:37:59;9.73;;;7.82;;
21107;SDS011;10712;52.944;9.098;2022-08-19T02:40:50;8.23;;;7.07;;
21107;SDS011;10712;52.944;9.098;2022-08-19T02:43:23;11.02;;;8.52;;
21107;SDS011;10712;52.944;9.098;2022-08-19T02:45:51;10.98;;;7.50;;
21107;SDS011;10712;52.944;9.098;2022-08-19T02:48:21;6.55;;;5.90;;
21107;SDS011;10712;52.944;9.098;2022-08-19T02:50:51;8.05;;;6.38;;
21107;SDS011;10712;52.944;9.098;2022-08-19T02:53:23;12.00;;;9.00;;
21107;SDS011;10712;52.944;9.098;2022-08-19T02:55:52;9.52;;;7.85;;
21107;SDS011;10712;52.944;9.098;2022-08-19T02:58:19;10.95;;;7.25;;
21107;SDS011;10712;52.944;9.098;2022-08-19T03:00:51;10.10;;;7.38;;
21107;SDS011;10712;52.944;9.098;2022-08-19T03:03:20;7.93;;;5.90;;
21107;SDS011;10712;52.944;9.098;2022-08-19T03:05:46;7.80;;;7.00;;
21107;SDS011;10712;52.944;9.098;2022-08-19T03:08:12;15.40;;;9.05;;
21107;SDS011;10712;52.944;9.098;2022-08-19T03:10:40;11.32;;;7.70;;
21107;SDS011;10712;52.944;9.098;2022-08-19T03:13:15;11.68;;;7.95;;
21107;SDS011;10712;52.944;9.098;2022-08-19T03:15:43;10.13;;;7.70;;
21107;SDS011;10712;52.944;9.098;2022-08-19T03:18:12;12.85;;;7.75;;
21107;SDS011;10712;52.944;9.098;2022-08-19T03:20:40;8.25;;;6.63;;
21107;SDS011;10712;52.944;9.098;2022-08-19T03:23:08;6.45;;;5.95;;
21107;SDS011;10712;52.944;9.098;2022-08-19T03:25:36;9.75;;;7.15;;
21107;SDS011;10712;52.944;9.098;2022-08-19T03:28:06;11.02;;;8.50;;
21107;SDS011;10712;52.944;9.098;2022-08-19T03:30:32;8.13;;;7.33;;
21107;SDS011;10712;52.944;9.098;2022-08-19T03:32:58;9.88;;;6.72;;
21107;SDS011;10712;52.944;9.098;2022-08-19T03:35:24;10.18;;;6.97;;
21107;SDS011;10712;52.944;9.098;2022-08-19T03:37:50;7.13;;;6.43;;
21107;SDS011;10712;52.944;9.098;2022-08-19T03:40:17;8.45;;;6.97;;
21107;SDS011;10712;52.944;9.098;2022-08-19T03:42:44;7.93;;;6.57;;
21107;SDS011;10712;52.944;9.098;2022-08-19T03:45:11;9.10;;;7.53;;
21107;SDS011;10712;52.944;9.098;2022-08-19T03:47:37;8.80;;;7.70;;
21107;SDS011;10712;52.944;9.098;2022-08-19T03:50:03;9.30;;;8.18;;
21107;SDS011;10712;52.944;9.098;2022-08-19T03:52:30;11.60;;;7.95;;
21107;SDS011;10712;52.944;9.098;2022-08-19T03:54:55;10.57;;;8.25;;
21107;SDS011;10712;52.944;9.098;2022-08-19T03:57:21;10.60;;;9.50;;
21107;SDS011;10712;52.944;9.098;2022-08-19T03:59:47;11.70;;;9.32;;
21107;SDS011;10712;52.944;9.098;2022-08-19T04:02:13;13.65;;;11.07;;
21107;SDS011;10712;52.944;9.098;2022-08-19T04:04:40;16.80;;;11.52;;
21107;SDS011;10712;52.944;9.098;2022-08-19T04:07:08;13.07;;;10.30;;
21107;SDS011;10712;52.944;9.098;2022-08-19T04:09:40;18.52;;;10.68;;
21107;SDS011;10712;52.944;9.098;2022-08-19T04:12:06;16.48;;;11.98;;
21107;SDS011;10712;52.944;9.098;2022-08-19T04:14:33;10.27;;;8.70;;
21107;SDS011;10712;52.944;9.098;2022-08-19T04:17:00;12.10;;;9.77;;
21107;SDS011;10712;52.944;9.098;2022-08-19T04:19:29;13.20;;;10.80;;
21107;SDS011;10712;52.944;9.098;2022-08-19T04:21:56;16.08;;;13.38;;
21107;SDS011;10712;52.944;9.098;2022-08-19T04:24:23;18.85;;;13.70;;
21107;SDS011;10712;52.944;9.098;2022-08-19T04:26:50;17.42;;;14.48;;
21107;SDS011;10712;52.944;9.098;2022-08-19T04:29:18;17.08;;;14.68;;
21107;SDS011;10712;52.944;9.098;2022-08-19T04:31:50;15.15;;;12.52;;
21107;SDS011;10712;52.944;9.098;2022-08-19T04:34:19;16.35;;;13.65;;
21107;SDS011;10712;52.944;9.098;2022-08-19T04:36:47;19.48;;;15.23;;
21107;SDS011;10712;52.944;9.098;2022-08-19T04:39:16;15.40;;;12.95;;
21107;SDS011;10712;52.944;9.098;2022-08-19T04:41:46;17.65;;;13.57;;
21107;SDS011;10712;52.944;9.098;2022-08-19T04:44:31;15.55;;;12.40;;
21107;SDS011;10712;52.944;9.098;2022-08-19T04:46:59;14.70;;;12.38;;
21107;SDS011;10712;52.944;9.098;2022-08-19T04:49:26;13.77;;;11.80;;
21107;SDS011;10712;52.944;9.098;2022-08-19T04:51:53;14.02;;;11.30;;
21107;SDS011;10712;52.944;9.098;2022-08-19T04:54:21;15.57;;;13.93;;
21107;SDS011;10712;52.944;9.098;2022-08-19T04:56:50;15.65;;;13.90;;
21107;SDS011;10712;52.944;9.098;2022-08-19T04:59:18;14.27;;;12.30;;
21107;SDS011;10712;52.944;9.098;2022-08-19T05:01:45;16.92;;;13.35;;
21107;SDS011;10712;52.944;9.098;2022-08-19T05:04:17;17.40;;;12.07;;
21107;SDS011;10712;52.944;9.098;2022-08-19T05:06:48;18.90;;;13.48;;
21107;SDS011;10712;52.944;9.098;2022-08-19T05:09:15;25.48;;;13.82;;
21107;SDS011;10712;52.944;9.098;2022-08-19T05:11:42;15.68;;;12.63;;
21107;SDS011;10712;52.944;9.098;2022-08-19T05:14:09;14.73;;;12.25;;
21107;SDS011;10712;52.944;9.098;2022-08-19T05:16:38;20.38;;;15.40;;
21107;SDS011;10712;52.944;9.098;2022-08-19T05:19:05;22.45;;;15.85;;
21107;SDS011;10712;52.944;9.098;2022-08-19T05:21:50;18.38;;;15.63;;
21107;SDS011;10712;52.944;9.098;2022-08-19T05:24:34;17.73;;;15.70;;
21107;SDS011;10712;52.944;9.098;2022-08-19T05:27:01;19.67;;;16.45;;
21107;SDS011;10712;52.944;9.098;2022-08-19T05:29:29;18.85;;;14.95;;
21107;SDS011;10712;52.944;9.098;2022-08-19T05:31:59;21.23;;;16.55;;
21107;SDS011;10712;52.944;9.098;2022-08-19T05:34:28;15.07;;;13.00;;
21107;SDS011;10712;52.944;9.098;2022-08-19T05:36:55;18.08;;;15.82;;
21107;SDS011;10712;52.944;9.098;2022-08-19T05:39:25;17.33;;;14.30;;
21107;SDS011;10712;52.944;9.098;2022-08-19T05:41:57;19.67;;;16.13;;
21107;SDS011;10712;52.944;9.098;2022-08-19T05:44:28;25.40;;;16.73;;
21107;SDS011;10712;52.944;9.098;2022-08-19T05:46:57;22.27;;;15.48;;
21107;SDS011;10712;52.944;9.098;2022-08-19T05:49:24;15.30;;;13.32;;
21107;SDS011;10712;52.944;9.098;2022-08-19T05:51:52;16.73;;;13.23;;
21107;SDS011;10712;52.944;9.098;2022-08-19T05:54:20;17.83;;;14.80;;
21107;SDS011;10712;52.944;9.098;2022-08-19T05:56:48;19.48;;;15.93;;
21107;SDS011;10712;52.944;9.098;2022-08-19T05:59:17;16.05;;;13.85;;
21107;SDS011;10712;52.944;9.098;2022-08-19T06:01:45;19.52;;;14.02;;
21107;SDS011;10712;52.944;9.098;2022-08-19T06:04:15;14.57;;;12.37;;
21107;SDS011;10712;52.944;9.098;2022-08-19T06:06:48;15.23;;;11.82;;
21107;SDS011;10712;52.944;9.098;2022-08-19T06:09:16;15.97;;;12.30;;
21107;SDS011;10712;52.944;9.098;2022-08-19T06:11:47;17.00;;;11.75;;
21107;SDS011;10712;52.944;9.098;2022-08-19T06:14:26;11.40;;;10.20;;
21107;SDS011;10712;52.944;9.098;2022-08-19T06:16:56;18.05;;;14.23;;
21107;SDS011;10712;52.944;9.098;2022-08-19T06:19:27;11.88;;;10.50;;
21107;SDS011;10712;52.944;9.098;2022-08-19T06:21:57;15.82;;;11.93;;
21107;SDS011;10712;52.944;9.098;2022-08-19T06:24:26;12.90;;;10.57;;
21107;SDS011;10712;52.944;9.098;2022-08-19T06:26:54;11.38;;;9.98;;
21107;SDS011;10712;52.944;9.098;2022-08-19T06:29:23;14.73;;;12.05;;
21107;SDS011;10712;52.944;9.098;2022-08-19T06:31:53;19.05;;;11.88;;
21107;SDS011;10712;52.944;9.098;2022-08-19T06:34:22;14.45;;;10.90;;
21107;SDS011;10712;52.944;9.098;2022-08-19T06:36:50;12.13;;;10.32;;
21107;SDS011;10712;52.944;9.098;2022-08-19T06:39:18;11.73;;;10.50;;
21107;SDS011;10712;52.944;9.098;2022-08-19T06:41:55;15.55;;;13.18;;
21107;SDS011;10712;52.944;9.098;2022-08-19T06:44:28;12.93;;;11.50;;
21107;SDS011;10712;52.944;9.098;2022-08-19T06:47:00;18.90;;;13.40;;
21107;SDS011;10712;52.944;9.098;2022-08-19T06:49:29;12.90;;;11.50;;
21107;SDS011;10712;52.944;9.098;2022-08-19T06:51:58;18.23;;;13.68;;
21107;SDS011;10712;52.944;9.098;2022-08-19T06:54:25;14.85;;;12.02;;
21107;SDS011;10712;52.944;9.098;2022-08-19T06:56:59;16.58;;;12.77;;
21107;SDS011;10712;52.944;9.098;2022-08-19T06:59:29;13.18;;;9.95;;
21107;SDS011;10712;52.944;9.098;2022-08-19T07:01:58;12.77;;;11.15;;
21107;SDS011;10712;52.944;9.098;2022-08-19T07:04:32;14.38;;;12.02;;
21107;SDS011;10712;52.944;9.098;2022-08-19T07:07:03;15.13;;;10.60;;
21107;SDS011;10712;52.944;9.098;2022-08-19T07:09:35;11.73;;;9.85;;
21107;SDS011;10712;52.944;9.098;2022-08-19T07:12:05;12.93;;;11.30;;
21107;SDS011;10712;52.944;9.098;2022-08-19T07:14:35;12.55;;;11.27;;
21107;SDS011;10712;52.944;9.098;2022-08-19T07:17:03;11.80;;;8.95;;
21107;SDS011;10712;52.944;9.098;2022-08-19T07:19:36;14.60;;;10.85;;
21107;SDS011;10712;52.944;9.098;2022-08-19T07:22:04;12.00;;;9.60;;
21107;SDS011;10712;52.944;9.098;2022-08-19T07:24:32;14.15;;;9.70;;
21107;SDS011;10712;52.944;9.098;2022-08-19T07:27:00;11.27;;;9.52;;
21107;SDS011;10712;52.944;9.098;2022-08-19T07:29:29;8.63;;;7.68;;
21107;SDS011;10712;52.944;9.098;2022-08-19T07:31:59;8.00;;;7.18;;
21107;SDS011;10712;52.944;9.098;2022-08-19T07:34:28;8.15;;;7.25;;
21107;SDS011;10712;52.944;9.098;2022-08-19T07:36:56;6.40;;;5.78;;
21107;SDS011;10712;52.944;9.098;2022-08-19T07:39:27;11.13;;;7.00;;
21107;SDS011;10712;52.944;9.098;2022-08-19T07:41:56;10.38;;;6.68;;
21107;SDS011;10712;52.944;9.098;2022-08-19T07:44:24;7.38;;;5.80;;
21107;SDS011;10712;52.944;9.098;2022-08-19T07:46:53;7.70;;;6.45;;
21107;SDS011;10712;52.944;9.098;2022-08-19T07:49:22;8.13;;;6.18;;
21107;SDS011;10712;52.944;9.098;2022-08-19T07:51:50;8.80;;;7.47;;
21107;SDS011;10712;52.944;9.098;2022-08-19T07:54:25;10.02;;;7.90;;
21107;SDS011;10712;52.944;9.098;2022-08-19T07:56:53;10.70;;;8.05;;
21107;SDS011;10712;52.944;9.098;2022-08-19T07:59:21;10.13;;;8.18;;
21107;SDS011;10712;52.944;9.098;2022-08-19T08:01:49;11.07;;;8.27;;
21107;SDS011;10712;52.944;9.098;2022-08-19T08:04:16;14.23;;;8.73;;
21107;SDS011;10712;52.944;9.098;2022-08-19T08:07:03;8.85;;;7.95;;
21107;SDS011;10712;52.944;9.098;2022-08-19T08:09:49;8.75;;;7.88;;
21107;SDS011;10712;52.944;9.098;2022-08-19T08:12:25;9.35;;;8.30;;
21107;SDS011;10712;52.944;9.098;2022-08-19T08:14:59;6.43;;;5.82;;
21107;SDS011;10712;52.944;9.098;2022-08-19T08:17:33;12.13;;;7.40;;
21107;SDS011;10712;52.944;9.098;2022-08-19T08:19:59;7.50;;;6.38;;
21107;SDS011;10712;52.944;9.098;2022-08-19T08:22:24;8.25;;;6.18;;
21107;SDS011;10712;52.944;9.098;2022-08-19T08:25:13;6.60;;;6.00;;
21107;SDS011;10712;52.944;9.098;2022-08-19T08:27:45;8.95;;;5.57;;
21107;SDS011;10712;52.944;9.098;2022-08-19T08:30:13;7.35;;;5.15;;
21107;SDS011;10712;52.944;9.098;2022-08-19T08:32:48;5.88;;;5.28;;
21107;SDS011;10712;52.944;9.098;2022-08-19T08:35:19;6.85;;;5.63;;
21107;SDS011;10712;52.944;9.098;2022-08-19T08:37:49;8.13;;;5.40;;
21107;SDS011;10712;52.944;9.098;2022-08-19T08:40:20;5.18;;;4.00;;
21107;SDS011;10712;52.944;9.098;2022-08-19T08:48:38;9.10;;;4.93;;
21107;SDS011;10712;52.944;9.098;2022-08-19T08:51:13;5.60;;;4.43;;
21107;SDS011;10712;52.944;9.098;2022-08-19T08:53:58;5.18;;;4.55;;
21107;SDS011;10712;52.944;9.098;2022-08-19T08:56:29;5.97;;;4.90;;
21107;SDS011;10712;52.944;9.098;2022-08-19T09:01:33;5.53;;;3.55;;
21107;SDS011;10712;52.944;9.098;2022-08-19T09:04:02;8.00;;;5.00;;
21107;SDS011;10712;52.944;9.098;2022-08-19T09:06:45;7.07;;;4.25;;
21107;SDS011;10712;52.944;9.098;2022-08-19T09:09:42;5.80;;;4.00;;
21107;SDS011;10712;52.944;9.098;2022-08-19T09:12:36;5.20;;;4.70;;
21107;SDS011;10712;52.944;9.098;2022-08-19T09:15:29;4.15;;;3.78;;
21107;SDS011;10712;52.944;9.098;2022-08-19T09:18:10;6.65;;;4.20;;
21107;SDS011;10712;52.944;9.098;2022-08-19T09:20:36;4.40;;;4.00;;
21107;SDS011;10712;52.944;9.098;2022-08-19T09:23:02;3.40;;;3.10;;
21107;SDS011;10712;52.944;9.098;2022-08-19T09:25:29;5.32;;;4.82;;
21107;SDS011;10712;52.944;9.098;2022-08-19T09:27:57;5.53;;;5.00;;
21107;SDS011;10712;52.944;9.098;2022-08-19T09:30:28;6.03;;;4.50;;
21107;SDS011;10712;52.944;9.098;2022-08-19T09:32:58;4.97;;;4.40;;
21107;SDS011;10712;52.944;9.098;2022-08-19T09:35:26;4.72;;;4.30;;
21107;SDS011;10712;52.944;9.098;2022-08-19T09:37:54;9.20;;;4.32;;
21107;SDS011;10712;52.944;9.098;2022-08-19T09:40:22;5.00;;;4.13;;
21107;SDS011;10712;52.944;9.098;2022-08-19T09:42:48;3.50;;;3.20;;
21107;SDS011;10712;52.944;9.098;2022-08-19T09:45:15;6.93;;;4.78;;
21107;SDS011;10712;52.944;9.098;2022-08-19T09:47:46;6.32;;;4.55;;
21107;SDS011;10712;52.944;9.098;2022-08-19T09:50:13;5.40;;;3.75;;
21107;SDS011;10712;52.944;9.098;2022-08-19T09:52:39;5.30;;;3.80;;
21107;SDS011;10712;52.944;9.098;2022-08-19T09:55:08;4.85;;;3.92;;
21107;SDS011;10712;52.944;9.098;2022-08-19T09:57:36;7.03;;;3.42;;
21107;SDS011;10712;52.944;9.098;2022-08-19T10:00:03;4.55;;;3.70;;
21107;SDS011;10712;52.944;9.098;2022-08-19T10:02:32;6.72;;;3.75;;
21107;SDS011;10712;52.944;9.098;2022-08-19T10:04:59;3.33;;;3.10;;
21107;SDS011;10712;52.944;9.098;2022-08-19T10:07:44;3.78;;;3.05;;
21107;SDS011;10712;52.944;9.098;2022-08-19T10:10:10;2.92;;;2.63;;
21107;SDS011;10712;52.944;9.098;2022-08-19T10:12:36;5.65;;;3.53;;
21107;SDS011;10712;52.944;9.098;2022-08-19T10:15:03;3.08;;;2.88;;
21107;SDS011;10712;52.944;9.098;2022-08-19T10:17:31;3.40;;;3.10;;
21107;SDS011;10712;52.944;9.098;2022-08-19T10:20:00;4.85;;;3.50;;
21107;SDS011;10712;52.944;9.098;2022-08-19T10:22:29;5.03;;;2.80;;
21107;SDS011;10712;52.944;9.098;2022-08-19T10:24:55;3.53;;;3.30;;
21107;SDS011;10712;52.944;9.098;2022-08-19T10:27:21;4.20;;;3.25;;
21107;SDS011;10712;52.944;9.098;2022-08-19T10:29:48;4.22;;;3.33;;
21107;SDS011;10712;52.944;9.098;2022-08-19T10:32:14;6.78;;;3.95;;
21107;SDS011;10712;52.944;9.098;2022-08-19T10:34:43;3.35;;;2.95;;
21107;SDS011;10712;52.944;9.098;2022-08-19T10:37:09;3.78;;;3.20;;
21107;SDS011;10712;52.944;9.098;2022-08-19T10:39:35;3.83;;;3.40;;
21107;SDS011;10712;52.944;9.098;2022-08-19T10:42:07;7.53;;;4.60;;
21107;SDS011;10712;52.944;9.098;2022-08-19T10:44:35;5.13;;;3.22;;
21107;SDS011;10712;52.944;9.098;2022-08-19T10:47:02;3.40;;;3.10;;
21107;SDS011;10712;52.944;9.098;2022-08-19T10:49:29;3.70;;;2.95;;
21107;SDS011;10712;52.944;9.098;2022-08-19T10:51:56;3.30;;;3.00;;
21107;SDS011;10712;52.944;9.098;2022-08-19T10:54:41;3.20;;;3.00;;
21107;SDS011;10712;52.944;9.098;2022-08-19T10:57:29;4.82;;;3.38;;
21107;SDS011;10712;52.944;9.098;2022-08-19T10:59:56;4.13;;;3.22;;
21107;SDS011;10712;52.944;9.098;2022-08-19T11:02:22;4.10;;;2.95;;
21107;SDS011;10712;52.944;9.098;2022-08-19T11:04:48;3.40;;;3.10;;
21107;SDS011;10712;52.944;9.098;2022-08-19T11:07:16;3.63;;;3.33;;
21107;SDS011;10712;52.944;9.098;2022-08-19T11:09:42;5.65;;;3.10;;
21107;SDS011;10712;52.944;9.098;2022-08-19T11:12:09;3.13;;;2.83;;
21107;SDS011;10712;52.944;9.098;2022-08-19T11:14:35;5.38;;;3.05;;
21107;SDS011;10712;52.944;9.098;2022-08-19T11:17:02;5.95;;;3.15;;
21107;SDS011;10712;52.944;9.098;2022-08-19T11:19:30;2.78;;;2.40;;
21107;SDS011;10712;52.944;9.098;2022-08-19T11:21:57;4.38;;;3.50;;
21107;SDS011;10712;52.944;9.098;2022-08-19T11:24:28;3.25;;;2.72;;
21107;SDS011;10712;52.944;9.098;2022-08-19T11:26:58;3.85;;;2.80;;
21107;SDS011;10712;52.944;9.098;2022-08-19T11:29:32;3.22;;;2.33;;
21107;SDS011;10712;52.944;9.098;2022-08-19T11:32:00;4.53;;;2.47;;
21107;SDS011;10712;52.944;9.098;2022-08-19T11:34:40;3.03;;;2.53;;
21107;SDS011;10712;52.944;9.098;2022-08-19T11:37:07;8.73;;;2.97;;
21107;SDS011;10712;52.944;9.098;2022-08-19T11:39:34;4.00;;;2.75;;
21107;SDS011;10712;52.944;9.098;2022-08-19T11:42:02;3.08;;;1.92;;
21107;SDS011;10712;52.944;9.098;2022-08-19T11:44:50;4.60;;;2.10;;
21107;SDS011;10712;52.944;9.098;2022-08-19T11:47:17;3.60;;;1.73;;
21107;SDS011;10712;52.944;9.098;2022-08-19T11:49:43;4.70;;;3.20;;
21107;SDS011;10712;52.944;9.098;2022-08-19T11:52:10;3.22;;;2.70;;
21107;SDS011;10712;52.944;9.098;2022-08-19T11:54:36;6.05;;;2.75;;
21107;SDS011;10712;52.944;9.098;2022-08-19T11:57:02;8.00;;;2.78;;
21107;SDS011;10712;52.944;9.098;2022-08-19T11:59:29;3.15;;;1.95;;
21107;SDS011;10712;52.944;9.098;2022-08-19T12:01:55;2.92;;;2.30;;
21107;SDS011;10712;52.944;9.098;2022-08-19T12:04:23;3.95;;;2.72;;
21107;SDS011;10712;52.944;9.098;2022-08-19T12:06:48;3.25;;;2.28;;
21107;SDS011;10712;52.944;9.098;2022-08-19T12:09:15;3.35;;;1.83;;
21107;SDS011;10712;52.944;9.098;2022-08-19T12:11:42;2.42;;;1.70;;
21107;SDS011;10712;52.944;9.098;2022-08-19T12:14:09;3.30;;;2.25;;
21107;SDS011;10712;52.944;9.098;2022-08-19T12:16:39;2.20;;;1.48;;
21107;SDS011;10712;52.944;9.098;2022-08-19T12:19:10;2.17;;;1.83;;
21107;SDS011;10712;52.944;9.098;2022-08-19T12:21:36;3.13;;;1.40;;
21107;SDS011;10712;52.944;9.098;2022-08-19T12:24:02;4.20;;;1.55;;
21107;SDS011;10712;52.944;9.098;2022-08-19T12:26:30;1.60;;;1.35;;
21107;SDS011;10712;52.944;9.098;2022-08-19T12:28:56;1.80;;;1.42;;
21107;SDS011;10712;52.944;9.098;2022-08-19T12:31:24;2.00;;;1.10;;
21107;SDS011;10712;52.944;9.098;2022-08-19T12:33:53;2.40;;;1.95;;
21107;SDS011;10712;52.944;9.098;2022-08-19T12:36:19;1.10;;;0.82;;
21107;SDS011;10712;52.944;9.098;2022-08-19T12:38:47;1.10;;;0.88;;
21107;SDS011;10712;52.944;9.098;2022-08-19T12:41:14;2.45;;;1.00;;
21107;SDS011;10712;52.944;9.098;2022-08-19T12:43:43;3.00;;;1.45;;
21107;SDS011;10712;52.944;9.098;2022-08-19T12:46:10;1.80;;;1.30;;
21107;SDS011;10712;52.944;9.098;2022-08-19T12:48:37;2.42;;;1.40;;
21107;SDS011;10712;52.944;9.098;2022-08-19T12:51:07;4.43;;;1.08;;
21107;SDS011;10712;52.944;9.098;2022-08-19T12:53:37;3.33;;;1.00;;
21107;SDS011;10712;52.944;9.098;2022-08-19T12:56:04;2.10;;;1.10;;
21107;SDS011;10712;52.944;9.098;2022-08-19T12:58:30;1.98;;;1.02;;
21107;SDS011;10712;52.944;9.098;2022-08-19T13:00:57;2.05;;;1.30;;
21107;SDS011;10712;52.944;9.098;2022-08-19T13:03:23;1.40;;;1.08;;
21107;SDS011;10712;52.944;9.098;2022-08-19T13:05:54;2.27;;;1.23;;
21107;SDS011;10712;52.944;9.098;2022-08-19T13:08:20;1.20;;;1.08;;
21107;SDS011;10712;52.944;9.098;2022-08-19T13:10:46;2.22;;;1.27;;
21107;SDS011;10712;52.944;9.098;2022-08-19T13:13:12;3.33;;;1.20;;
21107;SDS011;10712;52.944;9.098;2022-08-19T13:15:39;1.90;;;1.23;;
21107;SDS011;10712;52.944;9.098;2022-08-19T13:18:09;5.57;;;1.33;;
21107;SDS011;10712;52.944;9.098;2022-08-19T13:20:37;2.75;;;1.00;;
21107;SDS011;10712;52.944;9.098;2022-08-19T13:23:08;3.53;;;1.15;;
21107;SDS011;10712;52.944;9.098;2022-08-19T13:25:34;1.20;;;0.82;;
21107;SDS011;10712;52.944;9.098;2022-08-19T13:28:01;1.77;;;0.95;;
21107;SDS011;10712;52.944;9.098;2022-08-19T13:30:27;2.20;;;0.90;;
21107;SDS011;10712;52.944;9.098;2022-08-19T13:33:12;4.82;;;1.15;;
21107;SDS011;10712;52.944;9.098;2022-08-19T13:35:45;1.80;;;0.73;;
21107;SDS011;10712;52.944;9.098;2022-08-19T13:38:16;1.58;;;0.70;;
21107;SDS011;10712;52.944;9.098;2022-08-19T13:40:45;0.60;;;0.50;;
21107;SDS011;10712;52.944;9.098;2022-08-19T13:43:14;0.90;;;0.52;;
21107;SDS011;10712;52.944;9.098;2022-08-19T13:45:42;0.55;;;0.52;;
21107;SDS011;10712;52.944;9.098;2022-08-19T13:48:08;1.25;;;0.65;;
21107;SDS011;10712;52.944;9.098;2022-08-19T13:50:37;1.05;;;0.57;;
21107;SDS011;10712;52.944;9.098;2022-08-19T13:53:08;2.15;;;0.70;;
21107;SDS011;10712;52.944;9.098;2022-08-19T13:55:42;2.38;;;0.60;;
21107;SDS011;10712;52.944;9.098;2022-08-19T13:58:09;1.25;;;0.60;;
21107;SDS011;10712;52.944;9.098;2022-08-19T14:00:38;0.65;;;0.63;;
21107;SDS011;10712;52.944;9.098;2022-08-19T14:03:08;0.60;;;0.60;;
21107;SDS011;10712;52.944;9.098;2022-08-19T14:05:35;0.85;;;0.60;;
21107;SDS011;10712;52.944;9.098;2022-08-19T14:08:02;0.93;;;0.60;;
21107;SDS011;10712;52.944;9.098;2022-08-19T14:10:29;1.27;;;0.73;;
21107;SDS011;10712;52.944;9.098;2022-08-19T14:12:57;0.82;;;0.65;;
21107;SDS011;10712;52.944;9.098;2022-08-19T14:15:27;1.80;;;0.95;;
21107;SDS011;10712;52.944;9.098;2022-08-19T14:17:54;1.02;;;0.60;;
21107;SDS011;10712;52.944;9.098;2022-08-19T14:20:20;4.28;;;0.68;;
21107;SDS011;10712;52.944;9.098;2022-08-19T14:22:46;1.45;;;0.90;;
21107;SDS011;10712;52.944;9.098;2022-08-19T14:25:20;2.88;;;0.80;;
21107;SDS011;10712;52.944;9.098;2022-08-19T14:27:51;1.48;;;0.55;;
21107;SDS011;10712;52.944;9.098;2022-08-19T14:30:18;1.48;;;0.70;;
21107;SDS011;10712;52.944;9.098;2022-08-19T14:32:57;1.73;;;0.60;;
21107;SDS011;10712;52.944;9.098;2022-08-19T14:35:26;1.05;;;0.57;;
21107;SDS011;10712;52.944;9.098;2022-08-19T14:37:54;2.72;;;0.95;;
21107;SDS011;10712;52.944;9.098;2022-08-19T14:40:21;0.82;;;0.70;;
21107;SDS011;10712;52.944;9.098;2022-08-19T14:42:51;1.10;;;0.70;;
21107;SDS011;10712;52.944;9.098;2022-08-19T14:45:20;0.80;;;0.80;;
21107;SDS011;10712;52.944;9.098;2022-08-19T14:47:46;0.85;;;0.60;;
21107;SDS011;10712;52.944;9.098;2022-08-19T14:50:12;0.70;;;0.70;;
21107;SDS011;10712;52.944;9.098;2022-08-19T14:52:38;1.25;;;0.82;;
21107;SDS011;10712;52.944;9.098;2022-08-19T14:55:05;0.60;;;0.60;;
21107;SDS011;10712;52.944;9.098;2022-08-19T14:57:31;2.58;;;0.50;;
21107;SDS011;10712;52.944;9.098;2022-08-19T14:59:58;1.02;;;0.50;;
21107;SDS011;10712;52.944;9.098;2022-08-19T15:02:24;0.50;;;0.40;;